Time;durP1;ratioP1;P1;durP2;ratioP2;P2;SDS_P1;SDS_P2;PMS_P1;PMS_P2;Temp;Humidity;BMP_temperature;BMP_pressure;BME280_temperature;BME280_humidity;BME280_pressure;Samples;Min_cycle;Max_cycle;Signal;HPM_P1;HPM_P2
2021/10/27 00:00:42;;;;;;;;;4.00;4.00;;;;;20.87;49.39;101982.63;5019072;28;45330;-59
2021/10/27 00:03:08;;;;;;;;;3.25;3.00;;;;;20.89;49.69;101990.44;5018638;28;46214;-62
2021/10/27 00:05:33;;;;;;;;;4.75;4.75;;;;;20.85;49.45;101980.03;5001228;28;45686;-55
2021/10/27 00:07:58;;;;;;;;;4.00;3.00;;;;;20.89;49.44;101986.03;5019029;28;45706;-59
2021/10/27 00:10:24;;;;;;;;;3.25;3.25;;;;;20.88;49.69;101981.69;5018735;28;45461;-60
2021/10/27 00:12:50;;;;;;;;;3.00;3.00;;;;;20.87;49.24;101985.25;5000335;28;45566;-59
2021/10/27 00:15:17;;;;;;;;;4.75;3.00;;;;;20.87;49.44;101993.16;5018578;28;45747;-59
2021/10/27 00:17:43;;;;;;;;;4.50;4.00;;;;;20.85;49.65;101989.72;5018733;28;45449;-60
2021/10/27 00:20:10;;;;;;;;;2.00;2.00;;;;;20.87;49.82;101987.88;5018858;28;45552;-60
2021/10/27 00:22:36;;;;;;;;;5.25;5.25;;;;;20.83;49.37;101986.28;5018424;28;45431;-53
2021/10/27 00:25:03;;;;;;;;;4.00;4.00;;;;;20.83;49.35;101984.50;5000926;28;45239;-51
2021/10/27 00:27:28;;;;;;;;;6.50;3.50;;;;;20.80;49.37;101987.25;5018394;28;45329;-47
2021/10/27 00:29:53;;;;;;;;;6.50;3.50;;;;;20.82;49.77;101995.09;5000657;28;45644;-49
2021/10/27 00:32:19;;;;;;;;;6.25;5.25;;;;;20.82;49.70;101992.47;5018259;28;46299;-50
2021/10/27 00:34:44;;;;;;;;;3.00;3.00;;;;;20.83;49.47;101996.81;5018338;28;45865;-53
2021/10/27 00:37:10;;;;;;;;;3.00;3.00;;;;;20.83;49.60;101996.81;5018461;28;45501;-58
2021/10/27 00:39:36;;;;;;;;;4.25;3.25;;;;;20.82;49.50;102001.25;5018487;28;45484;-50
2021/10/27 00:42:04;;;;;;;;;3.75;3.00;;;;;20.82;49.39;101998.59;5018024;28;46321;-53
2021/10/27 00:44:30;;;;;;;;;4.00;4.00;;;;;20.82;49.82;102000.38;5018044;28;45452;-49
2021/10/27 00:47:05;;;;;;;;;5.00;4.75;;;;;20.81;49.97;101998.63;5017512;28;45368;-56
2021/10/27 00:49:31;;;;;;;;;3.75;3.75;;;;;20.82;49.41;102003.00;5018262;28;45547;-53
2021/10/27 00:51:58;;;;;;;;;4.00;4.00;;;;;20.82;49.26;102001.25;5017829;28;46755;-47
2021/10/27 00:54:24;;;;;;;;;4.75;3.75;;;;;20.81;49.60;101998.63;5018126;28;46053;-49
2021/10/27 00:56:55;;;;;;;;;6.00;4.00;;;;;20.78;49.68;101996.16;5018173;28;45333;-49
2021/10/27 00:59:22;;;;;;;;;4.25;4.25;;;;;20.81;49.43;101998.63;5018175;28;45499;-50
2021/10/27 01:01:47;;;;;;;;;6.00;4.25;;;;;20.79;49.69;102000.47;5017621;28;45423;-49
2021/10/27 01:04:13;;;;;;;;;3.25;2.75;;;;;20.80;49.46;102002.19;5017690;28;45513;-52
2021/10/27 01:06:39;;;;;;;;;4.00;4.00;;;;;20.79;49.36;102003.97;5017931;28;45311;-56
2021/10/27 01:09:05;;;;;;;;;4.50;3.25;;;;;20.79;49.38;102003.09;5018171;28;45551;-56
2021/10/27 01:11:30;;;;;;;;;4.25;4.25;;;;;20.78;49.81;101999.63;4999753;28;48548;-62
2021/10/27 01:13:56;;;;;;;;;3.75;3.75;;;;;20.78;49.32;101998.78;5017411;28;45420;-58
2021/10/27 01:16:22;;;;;;;;;5.00;5.00;;;;;20.78;49.96;101997.00;4999886;28;45835;-57
2021/10/27 01:18:47;;;;;;;;;1.00;1.00;;;;;20.79;49.71;102000.47;5017727;28;45611;-57
2021/10/27 01:21:12;;;;;;;;;3.25;3.25;;;;;20.78;49.76;101990.88;5017510;28;45412;-60
2021/10/27 01:23:38;;;;;;;;;5.00;4.00;;;;;20.79;49.41;101987.28;5017184;28;45270;-58
2021/10/27 01:26:08;;;;;;;;;4.00;4.00;;;;;20.77;49.30;101989.16;5017792;28;45362;-56
2021/10/27 01:28:43;;;;;;;;;6.25;5.75;;;;;20.77;49.56;101989.16;5017926;28;45407;-53
2021/10/27 01:31:10;;;;;;;;;5.00;5.00;;;;;20.77;49.62;101989.16;5017024;28;45653;-59
2021/10/27 01:33:37;;;;;;;;;3.00;3.00;;;;;20.75;49.61;101985.72;5017546;28;45392;-56
2021/10/27 01:36:04;;;;;;;;;4.25;4.00;;;;;20.75;49.44;101981.28;5017521;28;45881;-61
2021/10/27 01:38:31;;;;;;;;;5.00;4.00;;;;;20.75;49.72;101988.34;5017565;28;45602;-59
2021/10/27 01:40:56;;;;;;;;;5.00;4.00;;;;;20.76;49.66;101983.00;5017275;28;45748;-57
2021/10/27 01:43:21;;;;;;;;;4.00;4.00;;;;;20.76;49.43;101979.53;5016744;28;45357;-60
2021/10/27 01:45:47;;;;;;;;;3.50;3.00;;;;;20.75;49.89;101972.53;5017413;28;45482;-61
2021/10/27 01:48:12;;;;;;;;;3.75;3.75;;;;;20.74;49.74;101974.31;4999387;28;45565;-63
2021/10/27 01:50:37;;;;;;;;;4.75;4.75;;;;;20.74;49.57;101974.31;5017154;28;46616;-63
2021/10/27 01:53:03;;;;;;;;;4.50;3.00;;;;;20.76;49.78;101974.25;5017232;28;45496;-63
2021/10/27 01:55:28;;;;;;;;;4.75;3.00;;;;;20.73;49.75;101964.66;5017291;28;45472;-60
2021/10/27 01:57:54;;;;;;;;;4.00;4.00;;;;;20.74;49.36;101966.41;5016487;28;45560;-62
2021/10/27 02:00:20;;;;;;;;;5.00;5.00;;;;;20.74;49.36;101962.88;5016100;28;46218;-62
2021/10/27 02:02:45;;;;;;;;;3.00;3.00;;;;;20.73;49.52;101959.38;5016882;28;45470;-62
2021/10/27 02:05:13;;;;;;;;;5.50;4.25;;;;;20.70;49.59;101952.47;4999036;28;45392;-63
2021/10/27 02:07:39;;;;;;;;;4.75;3.00;;;;;20.68;49.37;101951.66;5017514;28;45504;-63
2021/10/27 02:10:07;;;;;;;;;4.25;4.25;;;;;20.72;49.73;101955.06;5016868;28;45677;-63
2021/10/27 02:12:32;;;;;;;;;4.50;4.00;;;;;20.71;49.42;101955.97;5016578;28;45891;-61
2021/10/27 02:14:57;;;;;;;;;4.25;4.00;;;;;20.71;49.76;101945.44;5016776;28;45377;-56
2021/10/27 02:17:23;;;;;;;;;3.00;3.00;;;;;20.70;49.30;101944.56;5017073;28;45386;-63
2021/10/27 02:19:48;;;;;;;;;4.25;4.25;;;;;20.73;49.18;101945.38;5016289;28;46453;-59
2021/10/27 02:22:14;;;;;;;;;4.00;4.00;;;;;20.69;49.40;101940.19;5016415;28;45820;-63
2021/10/27 02:24:39;;;;;;;;;4.00;4.00;;;;;20.70;49.77;101941.91;5017016;28;45803;-62
2021/10/27 02:27:05;;;;;;;;;4.00;4.00;;;;;20.69;49.30;101942.84;5016562;28;45530;-63
2021/10/27 02:29:30;;;;;;;;;4.00;4.00;;;;;20.70;49.53;101949.81;5016271;28;45840;-59
2021/10/27 02:31:55;;;;;;;;;5.75;4.50;;;;;20.69;49.51;101948.09;5016408;28;45286;-63
2021/10/27 02:34:21;;;;;;;;;3.25;2.25;;;;;20.66;49.28;101944.72;5016239;28;45537;-61
2021/10/27 02:36:46;;;;;;;;;5.50;4.00;;;;;20.70;49.70;101957.72;5016638;28;45339;-63
2021/10/27 02:39:12;;;;;;;;;4.75;3.25;;;;;20.64;49.05;101946.56;5016211;28;45397;-62
2021/10/27 02:41:37;;;;;;;;;4.75;3.00;;;;;20.68;49.51;101951.66;5016685;28;45422;-58
2021/10/27 02:44:03;;;;;;;;;4.75;3.25;;;;;20.68;49.20;101954.28;5016449;28;45754;-63
2021/10/27 02:46:28;;;;;;;;;5.00;5.00;;;;;20.69;49.53;101955.16;5016585;28;45615;-63
2021/10/27 02:48:54;;;;;;;;;4.50;4.00;;;;;20.67;49.07;101951.72;5015901;28;45430;-63
2021/10/27 02:51:19;;;;;;;;;4.00;4.00;;;;;20.69;49.32;101956.00;5016103;28;45353;-64
2021/10/27 02:53:45;;;;;;;;;2.25;2.25;;;;;20.67;49.91;101949.09;5016331;28;45376;-62
2021/10/27 02:56:10;;;;;;;;;4.00;4.00;;;;;20.65;49.56;101950.91;5016741;28;45324;-57
2021/10/27 02:58:35;;;;;;;;;2.75;2.75;;;;;20.67;49.12;101957.00;5016027;28;46002;-59
2021/10/27 03:01:01;;;;;;;;;8.25;4.00;;;;;20.66;49.30;101947.38;5015885;28;45425;-58
2021/10/27 03:03:27;;;;;;;;;3.75;3.75;;;;;20.67;49.28;101954.34;5015969;28;45950;-62
2021/10/27 03:05:52;;;;;;;;;4.25;4.00;;;;;20.64;49.67;101947.44;5016291;28;45390;-54
2021/10/27 03:08:18;;;;;;;;;4.75;3.00;;;;;20.64;49.48;101949.19;5015837;28;45392;-60
2021/10/27 03:10:43;;;;;;;;;4.75;3.00;;;;;20.65;49.31;101946.53;5015396;28;45403;-56
2021/10/27 03:13:08;;;;;;;;;3.00;3.00;;;;;20.63;49.60;101942.22;5016252;28;45681;-53
2021/10/27 03:15:34;;;;;;;;;4.50;4.50;;;;;20.65;49.25;101945.66;5016080;28;45670;-57
2021/10/27 03:18:00;;;;;;;;;4.25;4.25;;;;;20.65;49.38;101951.78;5015784;28;45316;-52
2021/10/27 03:20:25;;;;;;;;;4.25;4.00;;;;;20.63;48.99;101948.34;5015626;28;45333;-61
2021/10/27 03:22:51;;;;;;;;;4.25;4.25;;;;;20.65;49.18;101940.38;5015844;28;45455;-63
2021/10/27 03:25:16;;;;;;;;;2.75;2.75;;;;;20.65;49.23;101937.75;5015913;28;45627;-63
2021/10/27 03:27:41;;;;;;;;;4.75;4.75;;;;;20.63;49.03;101939.56;4998144;28;46913;-59
2021/10/27 03:30:07;;;;;;;;;3.00;3.00;;;;;20.62;49.46;101933.47;5015701;28;45638;-62
2021/10/27 03:32:33;;;;;;;;;3.25;3.25;;;;;20.61;49.14;101926.47;5015555;28;45404;-54
2021/10/27 03:34:58;;;;;;;;;3.25;3.25;;;;;20.63;49.07;101932.56;4997906;28;45261;-58
2021/10/27 03:37:23;;;;;;;;;4.00;4.00;;;;;20.63;49.32;101929.03;5015639;28;45396;-60
2021/10/27 03:39:49;;;;;;;;;3.00;3.00;;;;;20.63;48.91;101923.78;5015084;28;45380;-58
2021/10/27 03:42:15;;;;;;;;;3.25;3.00;;;;;20.63;49.01;101929.91;5014690;28;45393;-59
2021/10/27 03:44:41;;;;;;;;;3.00;3.00;;;;;20.62;48.85;101924.69;5016196;28;45420;-56
2021/10/27 03:47:06;;;;;;;;;3.25;3.25;;;;;20.63;49.07;101931.66;5015154;28;47188;-63
2021/10/27 03:49:32;;;;;;;;;2.25;2.25;;;;;20.61;49.36;101937.00;5014400;28;45362;-62
2021/10/27 03:51:58;;;;;;;;;7.00;5.75;;;;;20.61;49.25;101936.16;5015507;28;45236;-52
2021/10/27 03:54:23;;;;;;;;;5.00;3.75;;;;;20.61;48.91;101942.28;5015612;28;45513;-56
2021/10/27 03:56:48;;;;;;;;;3.00;2.50;;;;;20.60;49.55;101932.66;5015381;28;45545;-51
2021/10/27 03:59:15;;;;;;;;;2.50;2.50;;;;;20.60;49.10;101942.34;5015510;28;45508;-61
2021/10/27 04:01:40;;;;;;;;;5.00;4.00;;;;;20.61;49.20;101944.91;5015802;28;45389;-57
2021/10/27 04:04:06;;;;;;;;;5.00;4.00;;;;;20.60;48.92;101943.19;5015307;28;45353;-53
2021/10/27 04:06:31;;;;;;;;;3.00;3.00;;;;;20.60;49.36;101934.44;5015118;28;46483;-56
2021/10/27 04:08:56;;;;;;;;;4.00;3.50;;;;;20.61;49.18;101944.06;5015293;28;45433;-49
2021/10/27 04:11:22;;;;;;;;;4.00;4.00;;;;;20.59;49.21;101930.09;5015072;28;45301;-50
2021/10/27 04:13:48;;;;;;;;;4.00;4.00;;;;;20.60;48.87;101932.66;5015356;28;45552;-62
2021/10/27 04:16:13;;;;;;;;;3.00;3.00;;;;;20.60;48.74;101927.38;5015398;28;45408;-62
2021/10/27 04:18:39;;;;;;;;;6.00;3.00;;;;;20.60;48.96;101927.38;5014973;28;45411;-63
2021/10/27 04:21:05;;;;;;;;;6.00;3.00;;;;;20.59;48.89;101923.03;5015067;28;45450;-63
2021/10/27 04:23:30;;;;;;;;;6.00;4.00;;;;;20.59;48.87;101930.94;5018067;28;45568;-64
2021/10/27 04:25:56;;;;;;;;;5.75;3.00;;;;;20.55;48.91;101930.19;5018268;28;46221;-63
2021/10/27 04:28:21;;;;;;;;;3.50;3.50;;;;;20.59;49.04;101941.47;4996948;28;45444;-64
2021/10/27 04:30:46;;;;;;;;;3.00;3.00;;;;;20.57;48.80;101942.47;4998565;28;45218;-61
2021/10/27 04:33:21;;;;;;;;;3.00;3.00;;;;;20.59;48.46;101952.00;4998945;28;45715;-65
2021/10/27 04:35:47;;;;;;;;;3.75;3.75;;;;;20.57;48.59;101948.56;4998032;28;46641;-56
2021/10/27 04:38:13;;;;;;;;;3.00;3.00;;;;;20.54;48.85;101943.44;4998502;28;45379;-61
2021/10/27 04:40:42;;;;;;;;;2.00;2.00;;;;;20.49;48.87;101937.47;4998277;28;45393;-61
2021/10/27 04:43:08;;;;;;;;;4.00;3.75;;;;;20.57;48.59;101951.19;4998465;28;45472;-64
2021/10/27 04:45:33;;;;;;;;;5.00;4.00;;;;;20.55;48.84;101955.69;4998205;28;46714;-64
2021/10/27 04:47:59;;;;;;;;;4.00;4.00;;;;;20.57;48.96;101953.84;4998062;28;45381;-68
2021/10/27 04:50:24;;;;;;;;;3.25;3.25;;;;;20.58;49.51;101955.56;4997880;28;45394;-74
2021/10/27 04:52:50;;;;;;;;;4.00;3.25;;;;;20.59;49.68;101952.00;4998338;28;45560;-70
2021/10/27 04:55:15;;;;;;;;;4.00;4.00;;;;;20.61;49.50;101958.09;4998272;28;45370;-68
2021/10/27 04:57:41;;;;;;;;;3.75;3.00;;;;;20.60;49.83;101950.25;4997933;28;45429;-70
2021/10/27 05:00:07;;;;;;;;;4.00;4.00;;;;;20.61;49.69;101957.25;4998049;28;45187;-61
2021/10/27 05:02:32;;;;;;;;;4.00;4.00;;;;;20.59;50.09;101944.09;4998200;28;45614;-63
2021/10/27 05:04:57;;;;;;;;;5.00;5.00;;;;;20.58;49.88;101947.66;4997566;28;45362;-70
2021/10/27 05:07:24;;;;;;;;;4.75;4.75;;;;;20.58;50.50;101950.28;4997823;28;45408;-65
2021/10/27 05:09:50;;;;;;;;;3.50;3.00;;;;;20.59;50.50;101945.91;4997819;28;45388;-66
2021/10/27 05:12:15;;;;;;;;;3.00;3.00;;;;;20.58;50.66;101950.28;4996866;28;45480;-67
2021/10/27 05:14:41;;;;;;;;;4.00;4.00;;;;;20.58;49.75;101949.44;4997799;28;46590;-70
2021/10/27 05:17:10;;;;;;;;;7.25;6.25;;;;;20.55;50.51;101950.44;4996052;28;45504;-70
2021/10/27 05:19:40;;;;;;;;;3.50;3.50;;;;;20.57;50.46;101953.00;4997789;28;45442;-65
2021/10/27 05:22:07;;;;;;;;;4.00;4.00;;;;;20.53;50.48;101950.47;4997962;28;45552;-62
2021/10/27 05:24:32;;;;;;;;;5.25;4.00;;;;;20.54;50.57;101944.28;4979662;28;47026;-63
2021/10/27 05:26:58;;;;;;;;;5.00;4.00;;;;;20.52;50.81;101943.47;4997269;28;45290;-69
2021/10/27 05:29:24;;;;;;;;;4.25;3.75;;;;;20.53;50.99;101949.63;4997734;28;45362;-70
2021/10/27 05:31:49;;;;;;;;;6.00;4.75;;;;;20.52;50.87;101940.00;4997782;28;45564;-64
2021/10/27 05:34:15;;;;;;;;;3.25;3.25;;;;;20.50;51.36;101942.69;4997647;28;46513;-69
2021/10/27 05:36:41;;;;;;;;;5.00;4.00;;;;;20.51;51.32;101935.66;4997378;28;45389;-62
2021/10/27 05:39:07;;;;;;;;;3.00;3.00;;;;;20.52;51.17;101937.38;4997418;28;45439;-65
2021/10/27 05:41:32;;;;;;;;;6.00;4.00;;;;;20.49;51.72;101943.63;4997724;28;45477;-58
2021/10/27 05:43:58;;;;;;;;;5.75;4.75;;;;;20.50;51.63;101941.81;4979420;28;47596;-64
2021/10/27 05:46:24;;;;;;;;;7.25;6.00;;;;;20.50;51.70;101936.56;4996095;28;45497;-64
2021/10/27 05:48:59;;;;;;;;;5.25;3.50;;;;;20.47;51.82;101936.66;4997570;28;45483;-66
2021/10/27 05:51:38;;;;;;;;;5.25;5.25;;;;;20.49;51.67;101934.84;4997490;28;45568;-69
2021/10/27 05:56:48;;;;;;;;;6.25;5.25;;;;;20.47;52.17;101928.75;4997298;28;45679;-62
2021/10/27 05:59:13;;;;;;;;;7.25;5.50;;;;;20.47;51.91;101934.91;4996424;28;45383;-52
2021/10/27 06:01:38;;;;;;;;;5.25;5.25;;;;;20.46;51.82;101933.19;4996666;28;45604;-59
2021/10/27 06:04:04;;;;;;;;;5.00;5.00;;;;;20.47;52.24;101934.03;4995855;28;45310;-63
2021/10/27 06:06:29;;;;;;;;;4.50;4.50;;;;;20.45;51.78;101925.34;4996180;28;45366;-56
2021/10/27 06:08:57;;;;;;;;;6.00;6.00;;;;;20.45;51.76;101922.72;4996049;28;45650;-58
2021/10/27 06:11:22;;;;;;;;;5.00;3.50;;;;;20.43;52.30;101914.88;4996375;28;45539;-53
2021/10/27 06:13:48;;;;;;;;;5.25;3.25;;;;;20.45;52.21;101917.47;4978341;28;48127;-56
2021/10/27 06:16:14;;;;;;;;;5.00;5.00;;;;;20.42;52.39;101926.31;4994625;28;45372;-53
2021/10/27 06:18:41;;;;;;;;;5.00;5.00;;;;;20.44;52.13;101928.91;4996094;28;45420;-62
2021/10/27 06:21:08;;;;;;;;;4.00;4.00;;;;;20.43;52.26;101930.66;4996287;28;45606;-49
2021/10/27 06:23:34;;;;;;;;;6.50;6.00;;;;;20.44;52.32;101931.53;4995902;28;46305;-51
2021/10/27 06:26:00;;;;;;;;;4.25;4.25;;;;;20.43;52.17;101932.44;4995897;28;45382;-59
2021/10/27 06:28:29;;;;;;;;;5.25;5.00;;;;;20.42;51.91;101928.94;4978371;28;45406;-50
2021/10/27 06:31:08;;;;;;;;;4.00;4.00;;;;;20.44;52.09;101931.53;4996078;28;45422;-56
2021/10/27 06:33:53;;;;;;;;;6.00;5.25;;;;;20.43;52.40;101928.03;4995524;28;46454;-64
2021/10/27 06:39:13;;;;;;;;;5.00;5.00;;;;;20.40;52.35;101925.50;4996047;28;45338;-63
2021/10/27 06:47:06;;;;;;;;;7.00;5.75;;;;;20.53;53.41;101936.44;4996563;28;45976;-66
2021/10/27 06:49:32;;;;;;;;;6.50;6.00;;;;;20.54;53.25;101938.19;4996491;28;45685;-69
2021/10/27 06:51:57;;;;;;;;;5.50;4.75;;;;;20.61;53.19;101954.59;4996461;28;45453;-64
2021/10/27 06:54:22;;;;;;;;;5.75;4.00;;;;;20.63;53.40;101952.75;4996443;28;45437;-69
2021/10/27 06:56:48;;;;;;;;;5.50;5.50;;;;;20.65;53.70;101957.06;4978582;28;45529;-61
2021/10/27 07:15:03;;;;;;;;;4.00;4.00;;;;;20.82;53.56;101977.53;4996442;28;45406;-67
2021/10/27 07:17:30;;;;;;;;;5.75;5.25;;;;;20.84;53.37;101966.91;4978347;28;45909;-69
2021/10/27 07:19:55;;;;;;;;;7.50;5.00;;;;;20.86;53.37;101973.00;4994685;28;45283;-68
2021/10/27 07:22:21;;;;;;;;;5.25;5.25;;;;;20.86;52.83;101973.00;4996681;28;45235;-67
2021/10/27 07:24:46;;;;;;;;;5.00;5.00;;;;;20.91;52.79;101986.81;4996072;28;46194;-63
2021/10/27 07:27:12;;;;;;;;;7.00;6.75;;;;;20.89;52.63;101986.03;5012339;28;45408;-70
2021/10/27 07:29:41;;;;;;;;;6.75;6.75;;;;;20.94;52.90;101985.88;5015714;28;45421;-64
2021/10/27 07:32:08;;;;;;;;;6.00;6.00;;;;;20.94;52.56;101993.78;5016131;28;45623;-63
2021/10/27 07:34:39;;;;;;;;;6.50;6.50;;;;;20.97;52.36;101994.53;5015354;28;46843;-61
2021/10/27 07:40:32;;;;;;;;;9.00;6.00;;;;;20.98;52.32;101996.22;5016166;28;45303;-63
2021/10/27 07:42:46;;;;;;;;;8.00;6.50;;;;;20.99;52.27;101999.72;5014960;28;45467;-65
2021/10/27 07:45:11;;;;;;;;;4.00;4.00;;;;;21.00;52.66;101996.16;5015612;28;46028;-75
2021/10/27 07:47:37;;;;;;;;;9.00;5.50;;;;;21.03;52.63;101992.53;4997855;28;45361;-71
2021/10/27 07:50:03;;;;;;;;;9.00;8.00;;;;;21.05;52.49;101998.63;5015132;28;45513;-75
2021/10/27 07:52:28;;;;;;;;;7.00;6.00;;;;;21.06;52.36;102002.97;4997485;28;45367;-74
2021/10/27 07:54:54;;;;;;;;;8.00;6.50;;;;;21.07;52.87;101995.00;5015856;28;46301;-60
2021/10/27 07:57:19;;;;;;;;;7.00;5.75;;;;;21.08;52.39;102007.25;5018338;28;45318;-71
2021/10/27 07:59:44;;;;;;;;;7.25;7.25;;;;;21.12;52.50;102008.00;5019176;28;45628;-71
2021/10/27 08:02:10;;;;;;;;;5.00;3.00;;;;;21.09;52.93;102010.78;5001364;28;45692;-68
2021/10/27 08:04:37;;;;;;;;;7.25;6.75;;;;;21.10;52.74;102015.13;5018720;28;45425;-59
2021/10/27 08:07:03;;;;;;;;;6.75;6.25;;;;;21.14;52.51;102017.59;5018714;28;45373;-61
2021/10/27 08:09:28;;;;;;;;;7.75;6.75;;;;;21.15;52.44;102010.53;5019010;28;45336;-71
2021/10/27 08:11:54;;;;;;;;;7.00;7.00;;;;;21.19;52.89;102012.13;5019337;28;45723;-62
2021/10/27 08:14:20;;;;;;;;;8.00;6.75;;;;;21.19;52.48;102020.03;5018998;28;45740;-66
2021/10/27 08:16:46;;;;;;;;;8.75;5.25;;;;;21.21;52.57;102026.13;5018588;28;45884;-67
2021/10/27 08:19:11;;;;;;;;;7.75;6.00;;;;;21.24;52.64;102025.13;5000944;28;45467;-67
2021/10/27 08:21:37;;;;;;;;;11.75;8.25;;;;;21.24;52.62;102023.34;5018758;28;46015;-61
2021/10/27 08:24:04;;;;;;;;;11.75;7.25;;;;;21.20;52.35;102020.88;5018331;28;45474;-61
2021/10/27 08:26:30;;;;;;;;;8.75;7.50;;;;;21.24;52.28;102022.50;5018056;28;45405;-64
2021/10/27 08:28:57;;;;;;;;;11.00;9.00;;;;;21.24;52.31;102019.84;5018889;28;45383;-59
2021/10/27 08:34:34;;;;;;;;;7.75;7.50;;;;;21.23;52.59;102020.75;4995056;28;46384;-64
2021/10/27 08:36:59;;;;;;;;;12.00;9.00;;;;;21.20;52.75;102011.22;5018424;28;45235;-62
2021/10/27 08:39:25;;;;;;;;;10.25;9.00;;;;;21.19;52.36;102011.25;5018889;28;45220;-62
2021/10/27 08:41:50;;;;;;;;;9.50;8.00;;;;;21.18;53.14;102007.78;5001077;28;45669;-66
2021/10/27 08:44:16;;;;;;;;;9.25;9.00;;;;;21.18;52.81;102007.78;5018453;28;46360;-67
2021/10/27 08:46:43;;;;;;;;;8.75;7.25;;;;;21.15;52.51;101999.97;5018341;28;46002;-62
2021/10/27 08:49:09;;;;;;;;;8.75;8.25;;;;;21.14;53.12;102001.75;5018995;28;45334;-63
2021/10/27 08:51:36;;;;;;;;;9.75;8.75;;;;;21.15;53.13;101997.34;5019617;28;45480;-66
2021/10/27 08:54:05;;;;;;;;;11.00;7.75;;;;;21.17;53.05;102006.03;5019618;28;46605;-63
2021/10/27 08:56:30;;;;;;;;;8.50;6.75;;;;;21.14;52.31;102006.16;5019851;28;45341;-69
2021/10/27 08:59:08;;;;;;;;;7.75;7.50;;;;;21.16;52.57;102009.59;5020802;28;45243;-70
2021/10/27 09:01:47;;;;;;;;;10.50;9.00;;;;;21.15;52.68;101994.69;5021649;28;45555;-72
2021/10/27 09:07:21;;;;;;;;;9.00;9.00;;;;;21.18;52.82;102005.13;4995529;28;46002;-60
2021/10/27 10:05:01;;;;;;;;;9.25;7.00;;;;;21.24;51.57;101999.59;5016843;28;45515;-59
2021/10/27 10:07:28;;;;;;;;;8.50;6.00;;;;;21.20;52.15;101989.25;4999587;28;45583;-58
2021/10/27 10:09:54;;;;;;;;;10.00;8.25;;;;;21.24;51.58;101996.97;5016593;28;46490;-57
2021/10/27 10:12:20;;;;;;;;;10.00;9.25;;;;;21.21;51.44;101991.84;5016719;28;45294;-58
2021/10/27 10:14:49;;;;;;;;;8.75;8.00;;;;;21.21;51.69;101997.09;5016842;28;45437;-58
2021/10/27 10:17:15;;;;;;;;;11.50;9.75;;;;;21.19;51.78;101992.78;5016641;28;45511;-58
2021/10/27 10:19:43;;;;;;;;;12.75;10.75;;;;;21.20;51.97;102000.66;5014802;28;46854;-57
2021/10/27 10:22:33;;;;;;;;;8.75;7.75;;;;;21.17;51.76;101993.72;5016533;28;46002;-57
2021/10/27 10:25:17;;;;;;;;;12.50;10.00;;;;;21.18;52.15;101991.94;5016942;28;45510;-56
2021/10/27 10:27:46;;;;;;;;;10.00;9.00;;;;;21.17;51.59;102001.63;5016963;28;45574;-57
2021/10/27 10:30:42;;;;;;;;;12.25;9.75;;;;;21.19;51.81;101995.44;5016141;28;46075;-57
2021/10/27 10:33:10;;;;;;;;;12.25;9.25;;;;;21.20;51.92;102003.31;5016412;28;45443;-57
2021/10/27 10:35:49;;;;;;;;;10.50;10.50;;;;;21.23;51.63;101991.75;4997628;28;45468;-57
2021/10/27 11:27:06;;;;;;;;;110.75;98.25;;;;;21.84;51.50;101953.22;5015595;28;46173;-58
2021/10/27 11:37:55;;;;;;;;;120.50;97.75;;;;;21.87;51.39;101947.81;5019269;28;45896;-61
2021/10/27 11:40:26;;;;;;;;;105.25;88.50;;;;;21.85;51.27;101933.81;5019140;28;45364;-61
2021/10/27 11:42:56;;;;;;;;;111.75;92.75;;;;;21.88;51.15;101936.34;5019530;28;45472;-59
2021/10/27 11:48:06;;;;;;;;;112.00;89.75;;;;;21.87;51.14;101939.91;5019437;28;45252;-60
2021/10/27 11:50:43;;;;;;;;;100.25;86.00;;;;;21.86;51.01;101935.53;5019124;28;45706;-59
2021/10/27 11:53:32;;;;;;;;;95.75;84.50;;;;;21.88;50.95;101931.06;4996418;28;45450;-57
2021/10/27 11:55:58;;;;;;;;;95.50;83.25;;;;;21.86;50.84;101931.13;4999187;28;45370;-61
2021/10/27 11:58:40;;;;;;;;;93.00;78.50;;;;;21.86;50.75;101923.22;4998220;28;46370;-61
2021/10/27 12:01:07;;;;;;;;;82.25;73.25;;;;;21.83;50.45;101920.72;4998866;28;45385;-57
2021/10/27 12:03:37;;;;;;;;;87.25;74.75;;;;;21.80;50.48;101907.63;4999250;28;45342;-59
2021/10/27 12:06:08;;;;;;;;;84.00;74.00;;;;;21.84;50.75;101911.88;4999239;28;45528;-62
2021/10/27 12:11:31;;;;;;;;;81.00;64.00;;;;;21.83;50.45;101896.97;4997856;28;45837;-59
2021/10/27 12:17:25;;;;;;;;;79.25;71.50;;;;;21.83;50.33;101894.31;4984497;28;45829;-63
2021/10/27 12:19:51;;;;;;;;;77.50;62.50;;;;;21.81;50.07;101885.59;5018048;28;47444;-58
2021/10/27 12:22:23;;;;;;;;;77.25;63.00;;;;;21.82;50.17;101868.84;5018418;28;45873;-60
2021/10/27 12:24:57;;;;;;;;;73.75;59.25;;;;;21.82;50.26;101870.66;5018525;28;45426;-63
2021/10/27 12:27:35;;;;;;;;;77.50;59.00;;;;;21.81;50.16;101869.78;5018748;28;45560;-61
2021/10/27 12:30:08;;;;;;;;;75.75;60.50;;;;;21.77;50.08;101858.50;5018588;28;45648;-59
2021/10/27 12:32:47;;;;;;;;;73.50;57.25;;;;;21.78;49.93;101865.50;5018531;28;45797;-59
2021/10/27 12:35:13;;;;;;;;;70.75;54.50;;;;;21.75;50.24;101852.44;5018320;28;45481;-59
2021/10/27 12:37:54;;;;;;;;;71.25;54.75;;;;;21.75;50.10;101851.59;5017863;28;45410;-60
2021/10/27 12:43:03;;;;;;;;;74.00;53.75;;;;;21.72;50.03;101834.09;5016847;28;46015;-62
2021/10/27 12:45:32;;;;;;;;;66.50;51.75;;;;;21.74;50.04;101836.69;4999353;28;45285;-62
2021/10/27 12:48:28;;;;;;;;;65.50;51.25;;;;;21.72;50.20;101833.25;5018422;28;45421;-63
2021/10/27 12:50:56;;;;;;;;;63.50;50.50;;;;;21.73;50.02;101834.97;4989735;28;47102;-62
2021/10/27 12:53:31;;;;;;;;;67.00;51.75;;;;;21.71;49.96;101832.41;5017684;28;45333;-59
2021/10/27 12:56:30;;;;;;;;;72.00;52.25;;;;;21.71;49.96;101831.53;5018072;28;45287;-60
2021/10/27 12:59:04;;;;;;;;;67.75;50.25;;;;;21.69;50.32;101823.69;4999523;28;45978;-59
2021/10/27 13:01:48;;;;;;;;;64.50;49.50;;;;;21.68;50.24;101821.09;5017833;28;46909;-60
2021/10/27 13:07:22;;;;;;;;;57.50;46.50;;;;;21.67;50.80;101816.75;5003635;28;45818;-55
2021/10/27 13:31:13;;;;;;;;;57.25;45.50;;;;;21.71;50.73;101779.63;5017403;28;45444;-61
2021/10/27 13:33:39;;;;;;;;;56.75;44.25;;;;;21.72;50.53;101780.47;5017077;28;46815;-61
2021/10/27 13:36:04;;;;;;;;;55.25;42.25;;;;;21.73;50.90;101776.91;5017498;28;45412;-61
2021/10/27 13:38:35;;;;;;;;;61.50;47.75;;;;;21.72;50.64;101765.47;5017340;28;45576;-61
2021/10/27 13:41:03;;;;;;;;;60.00;45.00;;;;;21.71;50.61;101771.72;5017122;28;45448;-61
2021/10/27 13:43:54;;;;;;;;;56.25;43.75;;;;;21.72;50.71;101769.91;5017209;28;47473;-60
2021/10/27 14:07:39;;;;;;;;;50.00;37.50;;;;;21.54;50.30;101740.78;5016545;28;45910;-59
2021/10/27 14:10:11;;;;;;;;;51.25;38.75;;;;;21.52;50.50;101742.63;5016860;28;45385;-59
2021/10/27 14:12:55;;;;;;;;;52.50;40.25;;;;;21.50;50.94;101739.22;5016914;28;45571;-58
2021/10/27 15:19:53;;;;;;;;;29.75;27.00;;;;;21.30;50.97;101690.00;5012894;28;45744;-63
2021/10/27 15:40:40;;;;;;;;;30.00;25.00;;;;;21.30;51.04;101685.59;5012161;28;45726;-63
2021/10/27 15:51:20;;;;;;;;;25.50;21.75;;;;;21.29;50.83;101675.09;5010953;28;46444;-61
2021/10/27 15:53:45;;;;;;;;;25.75;21.75;;;;;21.27;51.07;101669.91;5013794;28;45921;-61
2021/10/27 15:56:12;;;;;;;;;24.00;20.75;;;;;21.25;51.35;101669.09;4997308;28;45431;-62
2021/10/27 15:58:37;;;;;;;;;23.00;21.00;;;;;21.26;51.02;101678.72;5015415;28;45598;-62
2021/10/27 16:01:02;;;;;;;;;31.00;23.25;;;;;21.24;50.90;101669.19;5015143;28;46444;-60
2021/10/27 16:03:28;;;;;;;;;20.75;18.50;;;;;21.26;50.83;101673.47;4997199;28;45372;-60
2021/10/27 16:05:55;;;;;;;;;26.50;19.50;;;;;21.20;50.89;101659.69;5015369;28;45384;-59
2021/10/27 16:08:23;;;;;;;;;24.50;19.50;;;;;21.26;50.92;101670.81;5015460;28;45433;-60
2021/10/27 16:10:50;;;;;;;;;21.00;18.50;;;;;21.25;51.00;101670.91;5013795;28;45650;-60
2021/10/27 16:13:17;;;;;;;;;19.00;19.00;;;;;21.22;50.95;101669.25;5013927;28;46063;-60
2021/10/27 16:15:52;;;;;;;;;21.00;19.25;;;;;21.21;50.93;101664.03;4995808;28;45456;-60
2021/10/27 16:18:18;;;;;;;;;27.75;22.50;;;;;21.21;50.55;101670.19;5016537;28;45451;-60
2021/10/27 16:20:44;;;;;;;;;24.00;22.00;;;;;21.17;50.58;101665.97;5000483;28;48476;-61